Terminal Aerodrome Forecast
Issued by NWS Cleveland, OH

Home | Current Version | Previous Version | Graphics & Text | Print | Product List | Glossary On
Versions: 1 2 3 4 5 6 7 8 9 10 11 12 13 14 15 16 17 18 19 20 21 22 23
000
FTUS41 KCLE 280200 AAA
TAFMFD
TAF AMD
KMFD 280203Z 2802/2824 34012G18KT P6SM VCSH SCT015 BKN025
      TEMPO 2802/2804 -SHRA BKN012
     FM280400 30008KT P6SM SCT020 OVC040
     FM281000 31010KT 5SM BR OVC006
     FM281500 33012KT P6SM OVC015=

USA.gov is the U.S. government's official web portal to all federal, state and local government web resources and services.